sensor_id;sensor_type;location;lat;lon;timestamp;pressure;altitude;pressure_sealevel;temperature;humidity
23176;BME280;19910;42.652;23.332;2023-05-19T00:01:50;94842.56;;;11.12;98.12
23176;BME280;19910;42.652;23.332;2023-05-19T00:04:19;94835.84;;;11.18;97.58
23176;BME280;19910;42.652;23.332;2023-05-19T00:06:49;94831.84;;;11.15;97.99
23176;BME280;19910;42.652;23.332;2023-05-19T00:09:16;94848.91;;;11.16;97.76
23176;BME280;19910;42.652;23.332;2023-05-19T00:11:44;94835.03;;;11.17;97.86
23176;BME280;19910;42.652;23.332;2023-05-19T00:14:11;94838.06;;;11.16;98.15
23176;BME280;19910;42.652;23.332;2023-05-19T00:16:38;94837.56;;;11.22;97.25
23176;BME280;19910;42.652;23.332;2023-05-19T00:19:06;94837.28;;;11.15;97.36
23176;BME280;19910;42.652;23.332;2023-05-19T00:21:35;94822.59;;;11.16;97.43
23176;BME280;19910;42.652;23.332;2023-05-19T00:24:04;94822.44;;;11.13;97.26
23176;BME280;19910;42.652;23.332;2023-05-19T00:26:30;94823.72;;;11.15;97.38
23176;BME280;19910;42.652;23.332;2023-05-19T00:28:57;94824.84;;;11.14;96.97
23176;BME280;19910;42.652;23.332;2023-05-19T00:31:24;94828.03;;;11.16;96.15
23176;BME280;19910;42.652;23.332;2023-05-19T00:33:51;94826.59;;;11.19;96.95
23176;BME280;19910;42.652;23.332;2023-05-19T00:36:17;94820.69;;;11.17;96.82
23176;BME280;19910;42.652;23.332;2023-05-19T00:38:45;94818.13;;;11.20;96.46
23176;BME280;19910;42.652;23.332;2023-05-19T00:41:12;94816.53;;;11.19;96.37
23176;BME280;19910;42.652;23.332;2023-05-19T00:43:39;94824.19;;;11.17;96.48
23176;BME280;19910;42.652;23.332;2023-05-19T00:46:06;94816.06;;;11.17;96.41
23176;BME280;19910;42.652;23.332;2023-05-19T00:48:33;94812.41;;;11.13;96.49
23176;BME280;19910;42.652;23.332;2023-05-19T00:51:00;94811.47;;;11.09;96.21
23176;BME280;19910;42.652;23.332;2023-05-19T00:53:29;94814.16;;;11.09;95.82
23176;BME280;19910;42.652;23.332;2023-05-19T00:55:58;94811.34;;;11.06;95.95
23176;BME280;19910;42.652;23.332;2023-05-19T00:58:26;94806.88;;;11.01;96.58
23176;BME280;19910;42.652;23.332;2023-05-19T01:00:54;94815.81;;;11.01;96.45
23176;BME280;19910;42.652;23.332;2023-05-19T01:03:27;94809.59;;;11.01;95.59
23176;BME280;19910;42.652;23.332;2023-05-19T01:05:55;94801.16;;;10.94;95.77
23176;BME280;19910;42.652;23.332;2023-05-19T01:08:22;94811.56;;;10.92;96.21
23176;BME280;19910;42.652;23.332;2023-05-19T01:10:49;94813.78;;;10.90;96.05
23176;BME280;19910;42.652;23.332;2023-05-19T01:13:17;94795.50;;;10.78;96.18
23176;BME280;19910;42.652;23.332;2023-05-19T01:15:56;94811.25;;;10.85;96.72
23176;BME280;19910;42.652;23.332;2023-05-19T01:18:34;94815.72;;;10.81;96.83
23176;BME280;19910;42.652;23.332;2023-05-19T01:21:17;94820.06;;;10.73;97.52
23176;BME280;19910;42.652;23.332;2023-05-19T01:23:53;94824.38;;;10.65;98.28
23176;BME280;19910;42.652;23.332;2023-05-19T01:26:53;94820.25;;;10.59;98.64
23176;BME280;19910;42.652;23.332;2023-05-19T01:29:40;94823.59;;;10.56;99.03
23176;BME280;19910;42.652;23.332;2023-05-19T01:32:09;94819.47;;;10.50;99.57
23176;BME280;19910;42.652;23.332;2023-05-19T01:34:41;94817.41;;;10.47;99.93
23176;BME280;19910;42.652;23.332;2023-05-19T01:37:08;94820.75;;;10.44;100.00
23176;BME280;19910;42.652;23.332;2023-05-19T01:39:36;94811.03;;;10.43;100.00
23176;BME280;19910;42.652;23.332;2023-05-19T01:42:04;94808.53;;;10.38;100.00
23176;BME280;19910;42.652;23.332;2023-05-19T01:44:32;94814.88;;;10.33;100.00
23176;BME280;19910;42.652;23.332;2023-05-19T01:46:59;94812.03;;;10.30;100.00
23176;BME280;19910;42.652;23.332;2023-05-19T01:49:28;94820.63;;;10.32;100.00
23176;BME280;19910;42.652;23.332;2023-05-19T01:51:55;94817.44;;;10.30;100.00
23176;BME280;19910;42.652;23.332;2023-05-19T01:54:22;94825.56;;;10.30;100.00
23176;BME280;19910;42.652;23.332;2023-05-19T01:56:51;94822.22;;;10.33;100.00
23176;BME280;19910;42.652;23.332;2023-05-19T01:59:31;94830.50;;;10.28;100.00
23176;BME280;19910;42.652;23.332;2023-05-19T02:02:06;94830.81;;;10.35;100.00
23176;BME280;19910;42.652;23.332;2023-05-19T02:04:42;94822.06;;;10.38;100.00
23176;BME280;19910;42.652;23.332;2023-05-19T02:07:14;94816.47;;;10.35;100.00
23176;BME280;19910;42.652;23.332;2023-05-19T02:09:51;94833.03;;;10.33;100.00
23176;BME280;19910;42.652;23.332;2023-05-19T02:12:19;94824.44;;;10.31;100.00
23176;BME280;19910;42.652;23.332;2023-05-19T02:14:53;94824.78;;;10.21;100.00
23176;BME280;19910;42.652;23.332;2023-05-19T02:17:26;94834.00;;;10.20;100.00
23176;BME280;19910;42.652;23.332;2023-05-19T02:19:55;94826.00;;;10.15;100.00
23176;BME280;19910;42.652;23.332;2023-05-19T02:22:22;94823.63;;;10.13;100.00
23176;BME280;19910;42.652;23.332;2023-05-19T02:24:49;94834.00;;;10.20;100.00
23176;BME280;19910;42.652;23.332;2023-05-19T02:27:16;94825.91;;;10.20;100.00
23176;BME280;19910;42.652;23.332;2023-05-19T02:29:43;94828.41;;;10.16;100.00
23176;BME280;19910;42.652;23.332;2023-05-19T02:32:10;94822.81;;;10.13;100.00
23176;BME280;19910;42.652;23.332;2023-05-19T02:34:37;94835.56;;;10.12;100.00
23176;BME280;19910;42.652;23.332;2023-05-19T02:37:05;94833.53;;;10.09;100.00
23176;BME280;19910;42.652;23.332;2023-05-19T02:39:32;94832.88;;;10.04;100.00
23176;BME280;19910;42.652;23.332;2023-05-19T02:42:00;94834.94;;;10.07;100.00
23176;BME280;19910;42.652;23.332;2023-05-19T02:44:27;94831.63;;;10.10;100.00
23176;BME280;19910;42.652;23.332;2023-05-19T02:46:53;94837.66;;;10.07;100.00
23176;BME280;19910;42.652;23.332;2023-05-19T02:49:20;94832.84;;;10.12;100.00
23176;BME280;19910;42.652;23.332;2023-05-19T02:51:47;94841.47;;;10.14;100.00
23176;BME280;19910;42.652;23.332;2023-05-19T02:54:15;94837.31;;;10.17;100.00
23176;BME280;19910;42.652;23.332;2023-05-19T02:56:42;94838.44;;;10.16;100.00
23176;BME280;19910;42.652;23.332;2023-05-19T02:59:08;94843.72;;;10.21;100.00
23176;BME280;19910;42.652;23.332;2023-05-19T03:01:35;94840.66;;;10.14;100.00
23176;BME280;19910;42.652;23.332;2023-05-19T03:04:02;94842.44;;;10.18;100.00
23176;BME280;19910;42.652;23.332;2023-05-19T03:06:29;94836.22;;;10.18;100.00
23176;BME280;19910;42.652;23.332;2023-05-19T03:08:57;94842.25;;;10.15;100.00
23176;BME280;19910;42.652;23.332;2023-05-19T03:11:25;94842.75;;;10.17;100.00
23176;BME280;19910;42.652;23.332;2023-05-19T03:13:52;94850.56;;;10.27;100.00
23176;BME280;19910;42.652;23.332;2023-05-19T03:16:18;94849.44;;;10.28;100.00
23176;BME280;19910;42.652;23.332;2023-05-19T03:18:46;94854.38;;;10.35;100.00
23176;BME280;19910;42.652;23.332;2023-05-19T03:21:13;94854.38;;;10.43;100.00
23176;BME280;19910;42.652;23.332;2023-05-19T03:23:39;94848.44;;;10.67;100.00
23176;BME280;19910;42.652;23.332;2023-05-19T03:26:06;94844.06;;;10.92;100.00
23176;BME280;19910;42.652;23.332;2023-05-19T03:28:34;94849.72;;;11.16;98.95
23176;BME280;19910;42.652;23.332;2023-05-19T03:31:01;94855.19;;;11.37;97.62
23176;BME280;19910;42.652;23.332;2023-05-19T03:33:28;94846.50;;;11.52;96.45
23176;BME280;19910;42.652;23.332;2023-05-19T03:35:55;94846.25;;;11.66;95.52
23176;BME280;19910;42.652;23.332;2023-05-19T03:38:22;94852.47;;;11.46;96.52
23176;BME280;19910;42.652;23.332;2023-05-19T03:40:49;94852.31;;;11.42;96.69
23176;BME280;19910;42.652;23.332;2023-05-19T03:43:16;94843.47;;;11.54;96.24
23176;BME280;19910;42.652;23.332;2023-05-19T03:45:44;94843.19;;;11.47;96.07
23176;BME280;19910;42.652;23.332;2023-05-19T03:48:11;94855.06;;;11.33;96.34
23176;BME280;19910;42.652;23.332;2023-05-19T03:50:40;94861.50;;;11.50;96.84
23176;BME280;19910;42.652;23.332;2023-05-19T03:53:07;94859.50;;;11.67;95.42
23176;BME280;19910;42.652;23.332;2023-05-19T03:55:33;94854.31;;;11.54;95.19
23176;BME280;19910;42.652;23.332;2023-05-19T03:58:01;94854.16;;;11.50;95.79
23176;BME280;19910;42.652;23.332;2023-05-19T04:00:28;94855.66;;;11.68;95.81
23176;BME280;19910;42.652;23.332;2023-05-19T04:02:57;94853.97;;;12.68;91.64
23176;BME280;19910;42.652;23.332;2023-05-19T04:05:24;94855.31;;;13.07;88.78
23176;BME280;19910;42.652;23.332;2023-05-19T04:07:51;94847.88;;;13.65;85.55
23176;BME280;19910;42.652;23.332;2023-05-19T04:10:18;94844.69;;;13.87;84.16
23176;BME280;19910;42.652;23.332;2023-05-19T04:12:45;94839.59;;;13.61;84.99
23176;BME280;19910;42.652;23.332;2023-05-19T04:15:12;94849.81;;;13.52;84.96
23176;BME280;19910;42.652;23.332;2023-05-19T04:17:39;94858.47;;;12.97;86.99
23176;BME280;19910;42.652;23.332;2023-05-19T04:20:08;94853.88;;;12.89;87.26
23176;BME280;19910;42.652;23.332;2023-05-19T04:22:35;94861.59;;;12.87;88.46
23176;BME280;19910;42.652;23.332;2023-05-19T04:25:02;94866.50;;;13.38;87.23
23176;BME280;19910;42.652;23.332;2023-05-19T04:27:29;94860.47;;;14.46;82.01
23176;BME280;19910;42.652;23.332;2023-05-19T04:29:56;94862.06;;;14.22;81.13
23176;BME280;19910;42.652;23.332;2023-05-19T04:32:23;94865.59;;;14.23;83.04
23176;BME280;19910;42.652;23.332;2023-05-19T04:34:50;94870.47;;;13.65;82.78
23176;BME280;19910;42.652;23.332;2023-05-19T04:37:18;94872.47;;;13.56;83.88
23176;BME280;19910;42.652;23.332;2023-05-19T04:39:45;94863.94;;;14.86;81.04
23176;BME280;19910;42.652;23.332;2023-05-19T04:42:12;94866.84;;;15.69;76.71
23176;BME280;19910;42.652;23.332;2023-05-19T04:44:43;94861.09;;;17.01;72.19
23176;BME280;19910;42.652;23.332;2023-05-19T04:47:10;94859.44;;;16.04;72.89
23176;BME280;19910;42.652;23.332;2023-05-19T04:49:37;94858.03;;;16.64;71.39
23176;BME280;19910;42.652;23.332;2023-05-19T04:52:05;94852.38;;;16.38;70.75
23176;BME280;19910;42.652;23.332;2023-05-19T04:54:36;94864.00;;;16.16;72.48
23176;BME280;19910;42.652;23.332;2023-05-19T04:57:04;94865.19;;;16.34;71.97
23176;BME280;19910;42.652;23.332;2023-05-19T04:59:31;94860.34;;;16.27;72.17
23176;BME280;19910;42.652;23.332;2023-05-19T05:01:58;94861.00;;;16.21;72.61
23176;BME280;19910;42.652;23.332;2023-05-19T05:04:25;94870.81;;;15.55;74.14
23176;BME280;19910;42.652;23.332;2023-05-19T05:06:52;94871.31;;;15.29;75.34
23176;BME280;19910;42.652;23.332;2023-05-19T05:09:19;94858.63;;;16.19;72.33
23176;BME280;19910;42.652;23.332;2023-05-19T05:11:48;94856.03;;;17.46;68.53
23176;BME280;19910;42.652;23.332;2023-05-19T05:14:16;94850.41;;;19.00;64.79
23176;BME280;19910;42.652;23.332;2023-05-19T05:16:43;94851.00;;;19.57;61.46
23176;BME280;19910;42.652;23.332;2023-05-19T05:19:11;94854.47;;;20.56;58.87
23176;BME280;19910;42.652;23.332;2023-05-19T05:21:38;94846.81;;;21.01;57.10
23176;BME280;19910;42.652;23.332;2023-05-19T05:24:07;94856.84;;;20.00;58.95
23176;BME280;19910;42.652;23.332;2023-05-19T05:26:34;94843.53;;;20.71;58.31
23176;BME280;19910;42.652;23.332;2023-05-19T05:29:02;94835.13;;;22.39;53.84
23176;BME280;19910;42.652;23.332;2023-05-19T05:31:29;94847.75;;;21.55;53.48
23176;BME280;19910;42.652;23.332;2023-05-19T05:33:56;94859.03;;;19.76;57.76
23176;BME280;19910;42.652;23.332;2023-05-19T05:36:23;94857.50;;;19.42;59.84
23176;BME280;19910;42.652;23.332;2023-05-19T05:38:50;94858.38;;;19.09;60.61
23176;BME280;19910;42.652;23.332;2023-05-19T05:41:17;94861.00;;;19.76;58.18
23176;BME280;19910;42.652;23.332;2023-05-19T05:43:43;94851.50;;;20.90;56.79
23176;BME280;19910;42.652;23.332;2023-05-19T05:46:12;94858.00;;;19.99;57.88
23176;BME280;19910;42.652;23.332;2023-05-19T05:48:39;94857.63;;;19.49;59.47
23176;BME280;19910;42.652;23.332;2023-05-19T05:51:07;94861.78;;;20.31;57.63
23176;BME280;19910;42.652;23.332;2023-05-19T05:53:39;94846.41;;;21.06;56.49
23176;BME280;19910;42.652;23.332;2023-05-19T05:56:09;94849.22;;;21.20;54.48
23176;BME280;19910;42.652;23.332;2023-05-19T05:58:36;94869.56;;;20.91;55.83
23176;BME280;19910;42.652;23.332;2023-05-19T06:01:05;94864.31;;;21.83;53.67
23176;BME280;19910;42.652;23.332;2023-05-19T06:03:37;94869.75;;;22.68;51.80
23176;BME280;19910;42.652;23.332;2023-05-19T06:06:04;94877.69;;;21.92;51.90
23176;BME280;19910;42.652;23.332;2023-05-19T06:08:31;94875.44;;;23.27;49.55
23176;BME280;19910;42.652;23.332;2023-05-19T06:10:58;94880.66;;;23.11;49.09
23176;BME280;19910;42.652;23.332;2023-05-19T06:13:25;94869.59;;;23.81;47.94
23176;BME280;19910;42.652;23.332;2023-05-19T06:15:51;94869.31;;;23.64;47.48
23176;BME280;19910;42.652;23.332;2023-05-19T06:18:18;94881.66;;;23.53;47.83
23176;BME280;19910;42.652;23.332;2023-05-19T06:20:46;94882.72;;;22.93;49.66
23176;BME280;19910;42.652;23.332;2023-05-19T06:23:13;94870.97;;;24.06;48.09
23176;BME280;19910;42.652;23.332;2023-05-19T06:25:39;94870.22;;;24.51;44.97
23176;BME280;19910;42.652;23.332;2023-05-19T06:28:06;94871.19;;;23.78;46.14
23176;BME280;19910;42.652;23.332;2023-05-19T06:30:33;94867.38;;;25.56;43.51
23176;BME280;19910;42.652;23.332;2023-05-19T06:33:01;94871.22;;;24.30;44.92
23176;BME280;19910;42.652;23.332;2023-05-19T06:35:28;94858.59;;;26.62;41.63
23176;BME280;19910;42.652;23.332;2023-05-19T06:37:57;94871.59;;;26.45;40.26
23176;BME280;19910;42.652;23.332;2023-05-19T06:40:24;94879.47;;;26.50;40.75
23176;BME280;19910;42.652;23.332;2023-05-19T06:42:50;94875.31;;;27.21;39.47
23176;BME280;19910;42.652;23.332;2023-05-19T06:45:17;94869.63;;;27.08;38.23
23176;BME280;19910;42.652;23.332;2023-05-19T06:47:46;94869.06;;;26.97;39.45
23176;BME280;19910;42.652;23.332;2023-05-19T06:50:13;94872.91;;;26.60;39.45
23176;BME280;19910;42.652;23.332;2023-05-19T06:52:39;94863.72;;;27.98;38.27
23176;BME280;19910;42.652;23.332;2023-05-19T06:55:08;94862.44;;;28.19;37.73
23176;BME280;19910;42.652;23.332;2023-05-19T06:57:35;94871.88;;;28.86;36.92
23176;BME280;19910;42.652;23.332;2023-05-19T07:00:02;94877.38;;;29.60;35.60
23176;BME280;19910;42.652;23.332;2023-05-19T07:02:30;94871.44;;;30.34;33.61
23176;BME280;19910;42.652;23.332;2023-05-19T07:04:57;94879.34;;;29.47;34.01
23176;BME280;19910;42.652;23.332;2023-05-19T07:07:24;94875.34;;;29.48;34.59
23176;BME280;19910;42.652;23.332;2023-05-19T07:09:51;94880.00;;;29.39;34.11
23176;BME280;19910;42.652;23.332;2023-05-19T07:12:19;94890.22;;;26.68;37.31
23176;BME280;19910;42.652;23.332;2023-05-19T07:14:46;94900.25;;;23.42;43.74
23176;BME280;19910;42.652;23.332;2023-05-19T07:17:13;94912.00;;;21.94;47.54
23176;BME280;19910;42.652;23.332;2023-05-19T07:19:40;94904.59;;;23.46;46.01
23176;BME280;19910;42.652;23.332;2023-05-19T07:22:06;94907.63;;;21.79;48.06
23176;BME280;19910;42.652;23.332;2023-05-19T07:24:33;94914.63;;;21.31;49.78
23176;BME280;19910;42.652;23.332;2023-05-19T07:27:00;94908.38;;;21.62;49.68
23176;BME280;19910;42.652;23.332;2023-05-19T07:29:28;94911.59;;;21.71;49.34
23176;BME280;19910;42.652;23.332;2023-05-19T07:31:55;94906.84;;;22.82;48.45
23176;BME280;19910;42.652;23.332;2023-05-19T07:34:22;94909.63;;;22.43;48.25
23176;BME280;19910;42.652;23.332;2023-05-19T07:36:49;94900.59;;;22.21;49.09
23176;BME280;19910;42.652;23.332;2023-05-19T07:39:16;94911.19;;;21.83;49.47
23176;BME280;19910;42.652;23.332;2023-05-19T07:41:43;94897.44;;;22.19;49.07
23176;BME280;19910;42.652;23.332;2023-05-19T07:44:16;94900.53;;;22.63;47.76
23176;BME280;19910;42.652;23.332;2023-05-19T07:46:44;94908.81;;;22.60;47.32
23176;BME280;19910;42.652;23.332;2023-05-19T07:49:11;94908.38;;;22.90;47.19
23176;BME280;19910;42.652;23.332;2023-05-19T07:51:38;94900.84;;;23.01;46.24
23176;BME280;19910;42.652;23.332;2023-05-19T07:54:06;94896.66;;;23.52;46.08
23176;BME280;19910;42.652;23.332;2023-05-19T07:56:33;94898.31;;;24.04;43.78
23176;BME280;19910;42.652;23.332;2023-05-19T07:59:00;94900.13;;;24.22;44.99
23176;BME280;19910;42.652;23.332;2023-05-19T08:01:26;94896.03;;;24.82;42.75
23176;BME280;19910;42.652;23.332;2023-05-19T08:03:55;94890.66;;;25.35;41.57
23176;BME280;19910;42.652;23.332;2023-05-19T08:06:21;94903.97;;;24.79;42.91
23176;BME280;19910;42.652;23.332;2023-05-19T08:08:49;94895.16;;;24.02;45.46
23176;BME280;19910;42.652;23.332;2023-05-19T08:11:16;94900.16;;;22.54;49.80
23176;BME280;19910;42.652;23.332;2023-05-19T08:13:43;94907.28;;;22.20;50.06
23176;BME280;19910;42.652;23.332;2023-05-19T08:16:11;94910.06;;;22.13;49.93
23176;BME280;19910;42.652;23.332;2023-05-19T08:18:38;94906.06;;;21.78;50.82
23176;BME280;19910;42.652;23.332;2023-05-19T08:21:06;94905.69;;;21.94;51.47
23176;BME280;19910;42.652;23.332;2023-05-19T08:23:33;94909.63;;;22.53;50.32
23176;BME280;19910;42.652;23.332;2023-05-19T08:26:01;94910.00;;;22.55;49.32
23176;BME280;19910;42.652;23.332;2023-05-19T08:28:28;94893.94;;;23.45;48.28
23176;BME280;19910;42.652;23.332;2023-05-19T08:30:55;94888.19;;;23.80;46.05
23176;BME280;19910;42.652;23.332;2023-05-19T08:33:21;94888.88;;;23.95;46.31
23176;BME280;19910;42.652;23.332;2023-05-19T08:35:48;94884.63;;;24.35;45.43
23176;BME280;19910;42.652;23.332;2023-05-19T08:38:16;94896.25;;;23.57;45.93
23176;BME280;19910;42.652;23.332;2023-05-19T08:40:45;94887.88;;;22.84;46.61
23176;BME280;19910;42.652;23.332;2023-05-19T08:43:12;94888.28;;;23.66;46.12
23176;BME280;19910;42.652;23.332;2023-05-19T08:45:41;94886.81;;;23.44;45.83
23176;BME280;19910;42.652;23.332;2023-05-19T08:48:08;94876.03;;;22.87;47.32
23176;BME280;19910;42.652;23.332;2023-05-19T08:50:39;94895.00;;;22.78;47.24
23176;BME280;19910;42.652;23.332;2023-05-19T08:53:12;94889.44;;;22.70;47.66
23176;BME280;19910;42.652;23.332;2023-05-19T08:55:47;94891.88;;;21.83;50.47
23176;BME280;19910;42.652;23.332;2023-05-19T08:58:17;94878.44;;;21.50;51.02
23176;BME280;19910;42.652;23.332;2023-05-19T09:00:46;94889.44;;;21.28;53.09
23176;BME280;19910;42.652;23.332;2023-05-19T09:03:15;94907.75;;;20.89;52.79
23176;BME280;19910;42.652;23.332;2023-05-19T09:05:42;94903.13;;;20.38;55.92
23176;BME280;19910;42.652;23.332;2023-05-19T09:08:10;94904.00;;;20.49;54.22
23176;BME280;19910;42.652;23.332;2023-05-19T09:10:36;94886.88;;;20.91;54.05
23176;BME280;19910;42.652;23.332;2023-05-19T09:13:05;94895.84;;;20.71;54.35
23176;BME280;19910;42.652;23.332;2023-05-19T09:15:33;94888.34;;;20.68;53.15
23176;BME280;19910;42.652;23.332;2023-05-19T09:18:07;94868.97;;;21.30;53.69
23176;BME280;19910;42.652;23.332;2023-05-19T09:20:38;94878.88;;;21.80;53.54
23176;BME280;19910;42.652;23.332;2023-05-19T09:23:05;94865.88;;;21.84;51.93
23176;BME280;19910;42.652;23.332;2023-05-19T09:25:33;94867.44;;;21.68;50.99
23176;BME280;19910;42.652;23.332;2023-05-19T09:28:00;94874.47;;;21.30;50.58
23176;BME280;19910;42.652;23.332;2023-05-19T09:30:28;94887.09;;;20.54;53.13
23176;BME280;19910;42.652;23.332;2023-05-19T09:32:56;94872.72;;;20.86;52.42
23176;BME280;19910;42.652;23.332;2023-05-19T09:35:23;94869.56;;;20.91;52.65
23176;BME280;19910;42.652;23.332;2023-05-19T09:37:49;94872.47;;;21.19;50.83
23176;BME280;19910;42.652;23.332;2023-05-19T09:40:16;94869.81;;;21.94;50.67
23176;BME280;19910;42.652;23.332;2023-05-19T09:42:43;94873.75;;;21.96;49.75
23176;BME280;19910;42.652;23.332;2023-05-19T09:45:10;94870.97;;;21.61;50.61
23176;BME280;19910;42.652;23.332;2023-05-19T09:47:39;94872.59;;;22.01;50.82
23176;BME280;19910;42.652;23.332;2023-05-19T09:50:08;94862.75;;;22.04;49.98
23176;BME280;19910;42.652;23.332;2023-05-19T09:52:35;94861.13;;;22.45;49.71
23176;BME280;19910;42.652;23.332;2023-05-19T09:55:03;94872.53;;;21.62;49.02
23176;BME280;19910;42.652;23.332;2023-05-19T09:57:34;94856.81;;;21.66;50.57
23176;BME280;19910;42.652;23.332;2023-05-19T10:00:03;94857.97;;;22.43;49.42
23176;BME280;19910;42.652;23.332;2023-05-19T10:02:45;94855.56;;;22.59;47.55
23176;BME280;19910;42.652;23.332;2023-05-19T10:05:13;94854.66;;;22.98;47.23
23176;BME280;19910;42.652;23.332;2023-05-19T10:07:42;94859.16;;;21.78;47.61
23176;BME280;19910;42.652;23.332;2023-05-19T10:10:11;94854.81;;;21.74;49.99
23176;BME280;19910;42.652;23.332;2023-05-19T10:12:38;94852.50;;;21.72;48.36
23176;BME280;19910;42.652;23.332;2023-05-19T10:15:08;94843.00;;;21.91;48.80
23176;BME280;19910;42.652;23.332;2023-05-19T10:17:37;94843.81;;;22.20;47.65
23176;BME280;19910;42.652;23.332;2023-05-19T10:20:07;94839.88;;;21.92;47.10
23176;BME280;19910;42.652;23.332;2023-05-19T10:22:35;94852.84;;;21.60;48.20
23176;BME280;19910;42.652;23.332;2023-05-19T10:25:02;94846.03;;;21.01;50.02
23176;BME280;19910;42.652;23.332;2023-05-19T10:27:30;94848.34;;;20.95;50.88
23176;BME280;19910;42.652;23.332;2023-05-19T10:30:00;94842.94;;;21.23;50.68
23176;BME280;19910;42.652;23.332;2023-05-19T10:32:30;94832.00;;;22.02;48.32
23176;BME280;19910;42.652;23.332;2023-05-19T10:35:18;94831.16;;;22.33;47.98
23176;BME280;19910;42.652;23.332;2023-05-19T10:37:54;94826.91;;;22.00;48.50
23176;BME280;19910;42.652;23.332;2023-05-19T10:40:26;94828.84;;;21.57;48.24
23176;BME280;19910;42.652;23.332;2023-05-19T10:43:09;94829.63;;;22.07;48.33
23176;BME280;19910;42.652;23.332;2023-05-19T10:45:44;94823.84;;;23.03;46.49
23176;BME280;19910;42.652;23.332;2023-05-19T10:48:13;94815.94;;;23.05;44.56
23176;BME280;19910;42.652;23.332;2023-05-19T10:50:43;94821.22;;;22.67;43.14
23176;BME280;19910;42.652;23.332;2023-05-19T10:53:15;94831.16;;;22.33;45.38
23176;BME280;19910;42.652;23.332;2023-05-19T10:55:44;94822.13;;;21.97;46.31
23176;BME280;19910;42.652;23.332;2023-05-19T10:58:12;94818.22;;;22.09;nan
23176;BME280;19910;42.652;23.332;2023-05-19T11:00:38;94818.47;;;22.67;46.33
23176;BME280;19910;42.652;23.332;2023-05-19T11:03:13;94812.41;;;23.01;45.34
23176;BME280;19910;42.652;23.332;2023-05-19T11:05:40;94814.16;;;23.39;45.61
23176;BME280;19910;42.652;23.332;2023-05-19T11:08:11;94813.88;;;24.30;43.36
23176;BME280;19910;42.652;23.332;2023-05-19T11:10:38;94801.47;;;25.10;41.30
23176;BME280;19910;42.652;23.332;2023-05-19T11:13:05;94805.25;;;24.89;42.21
23176;BME280;19910;42.652;23.332;2023-05-19T11:15:33;94805.50;;;24.34;43.18
23176;BME280;19910;42.652;23.332;2023-05-19T11:18:01;94808.13;;;22.93;42.17
23176;BME280;19910;42.652;23.332;2023-05-19T11:20:28;94808.13;;;22.86;42.65
23176;BME280;19910;42.652;23.332;2023-05-19T11:23:06;94803.31;;;24.15;41.31
23176;BME280;19910;42.652;23.332;2023-05-19T11:25:42;94791.66;;;24.71;40.74
23176;BME280;19910;42.652;23.332;2023-05-19T11:28:10;94790.06;;;24.70;39.68
23176;BME280;19910;42.652;23.332;2023-05-19T11:30:40;94785.09;;;25.19;40.13
23176;BME280;19910;42.652;23.332;2023-05-19T11:33:08;94797.19;;;24.71;39.83
23176;BME280;19910;42.652;23.332;2023-05-19T11:35:34;94789.47;;;23.70;41.42
23176;BME280;19910;42.652;23.332;2023-05-19T11:38:02;94804.38;;;22.23;45.93
23176;BME280;19910;42.652;23.332;2023-05-19T11:40:29;94801.66;;;22.02;46.52
23176;BME280;19910;42.652;23.332;2023-05-19T11:42:57;94809.13;;;21.90;46.55
23176;BME280;19910;42.652;23.332;2023-05-19T11:45:26;94812.97;;;21.11;49.99
23176;BME280;19910;42.652;23.332;2023-05-19T11:47:53;94838.09;;;19.61;59.76
23176;BME280;19910;42.652;23.332;2023-05-19T11:50:23;94862.97;;;17.62;72.13
23176;BME280;19910;42.652;23.332;2023-05-19T11:52:50;94899.66;;;16.39;77.07
23176;BME280;19910;42.652;23.332;2023-05-19T11:55:17;94887.44;;;15.82;85.25
23176;BME280;19910;42.652;23.332;2023-05-19T11:57:57;94879.84;;;15.91;76.30
23176;BME280;19910;42.652;23.332;2023-05-19T12:00:25;94886.66;;;15.66;82.99
23176;BME280;19910;42.652;23.332;2023-05-19T12:02:52;94883.56;;;15.83;89.00
23176;BME280;19910;42.652;23.332;2023-05-19T12:05:20;94891.47;;;15.88;85.44
23176;BME280;19910;42.652;23.332;2023-05-19T12:07:47;94910.28;;;15.58;83.20
23176;BME280;19910;42.652;23.332;2023-05-19T12:10:16;94911.03;;;15.58;88.94
23176;BME280;19910;42.652;23.332;2023-05-19T12:12:44;94908.28;;;15.43;88.51
23176;BME280;19910;42.652;23.332;2023-05-19T12:15:13;94919.63;;;15.29;91.69
23176;BME280;19910;42.652;23.332;2023-05-19T12:17:40;94929.13;;;15.35;92.74
23176;BME280;19910;42.652;23.332;2023-05-19T12:20:08;94937.09;;;15.40;94.69
23176;BME280;19910;42.652;23.332;2023-05-19T12:22:36;94937.09;;;15.40;94.94
23176;BME280;19910;42.652;23.332;2023-05-19T12:25:04;94921.03;;;15.23;90.50
23176;BME280;19910;42.652;23.332;2023-05-19T12:27:34;94924.72;;;15.15;90.53
23176;BME280;19910;42.652;23.332;2023-05-19T12:30:02;94920.13;;;15.19;89.65
23176;BME280;19910;42.652;23.332;2023-05-19T12:32:32;94913.47;;;15.32;89.05
23176;BME280;19910;42.652;23.332;2023-05-19T12:35:01;94912.16;;;15.42;90.39
23176;BME280;19910;42.652;23.332;2023-05-19T12:37:28;94901.25;;;15.73;89.52
23176;BME280;19910;42.652;23.332;2023-05-19T12:39:56;94904.31;;;16.03;86.54
23176;BME280;19910;42.652;23.332;2023-05-19T12:42:25;94894.28;;;16.26;84.38
23176;BME280;19910;42.652;23.332;2023-05-19T12:44:55;94878.13;;;16.91;82.39
23176;BME280;19910;42.652;23.332;2023-05-19T12:47:28;94879.38;;;17.17;80.48
23176;BME280;19910;42.652;23.332;2023-05-19T12:50:01;94865.75;;;17.43;79.86
23176;BME280;19910;42.652;23.332;2023-05-19T12:52:29;94861.25;;;17.54;76.84
23176;BME280;19910;42.652;23.332;2023-05-19T12:54:57;94851.41;;;17.72;79.18